DAL837 KATL-PHOG
Flight info
| Callsign | DAL837 |
|---|---|
| Flight time | N/A |
| Altitude | 32000 |
| Route | NASSA2 VUZ SQS J52 TXK/N0479F340 UKW HNKER CNX J74 MAXXO/N0463F360 J74 PKE TRM SXC C1177 MALIT IGOTT FICKY R578 FIZEL/N0460F380 R578 FITES LAVAS1 |
| Aircraft | A333/H-SDE3GHIJ2J3J5M1RVWXY/LB2D1 |
Departure
| Time | N/A |
|---|---|
| Airport | Hartsfield Jackson Atlanta International Airport (KATL) |
Arrival
| Time | 2026-05-08 22:40 |
|---|---|
| Airport | Kahului International Airport (PHOG) |
| Time | Latitude | Longitude | Altitude | Speed | Heading |
|---|---|---|---|---|---|
| 2026-05-08 22:08 | 20.65464 | -154.31398 | 36087 ft | 411 kts | 265° |
| 2026-05-08 22:08 | 20.65142 | -154.34323 | 36075 ft | 411 kts | 265° |
| 2026-05-08 22:09 | 20.64467 | -154.40410 | 36071 ft | 408 kts | 265° |
| 2026-05-08 22:09 | 20.63792 | -154.46480 | 36082 ft | 409 kts | 265° |
| 2026-05-08 22:10 | 20.63111 | -154.52596 | 35939 ft | 410 kts | 265° |
| 2026-05-08 22:10 | 20.62772 | -154.55641 | 35589 ft | 410 kts | 265° |
| 2026-05-08 22:10 | 20.62433 | -154.58676 | 35286 ft | 403 kts | 264° |
| 2026-05-08 22:10 | 20.62101 | -154.61636 | 34974 ft | 402 kts | 264° |
| 2026-05-08 22:11 | 20.61761 | -154.64662 | 34672 ft | 401 kts | 264° |
| 2026-05-08 22:11 | 20.61430 | -154.67589 | 34396 ft | 406 kts | 264° |
| 2026-05-08 22:11 | 20.61092 | -154.70599 | 34120 ft | 409 kts | 264° |
| 2026-05-08 22:11 | 20.60747 | -154.73654 | 33849 ft | 412 kts | 264° |
| 2026-05-08 22:12 | 20.60398 | -154.76738 | 33559 ft | 412 kts | 264° |
| 2026-05-08 22:12 | 20.60057 | -154.79765 | 33260 ft | 413 kts | 264° |
| 2026-05-08 22:12 | 20.59708 | -154.82838 | 32965 ft | 414 kts | 263° |
| 2026-05-08 22:12 | 20.59358 | -154.85912 | 32680 ft | 411 kts | 264° |
| 2026-05-08 22:13 | 20.59015 | -154.88943 | 32422 ft | 409 kts | 263° |
| 2026-05-08 22:13 | 20.58669 | -154.91946 | 32169 ft | 409 kts | 264° |
| 2026-05-08 22:13 | 20.58321 | -154.95015 | 31623 ft | 416 kts | 263° |
| 2026-05-08 22:13 | 20.57972 | -154.98077 | 30973 ft | 416 kts | 263° |
| 2026-05-08 22:14 | 20.57621 | -155.01132 | 30489 ft | 413 kts | 263° |
| 2026-05-08 22:14 | 20.57270 | -155.04208 | 29995 ft | 409 kts | 263° |
| 2026-05-08 22:14 | 20.56923 | -155.07211 | 29519 ft | 405 kts | 263° |
| 2026-05-08 22:14 | 20.56579 | -155.10205 | 29039 ft | 402 kts | 263° |
| 2026-05-08 22:15 | 20.56238 | -155.13165 | 28522 ft | 399 kts | 263° |
| 2026-05-08 22:15 | 20.55898 | -155.16112 | 27978 ft | 398 kts | 263° |
| 2026-05-08 22:15 | 20.55562 | -155.19029 | 27457 ft | 396 kts | 263° |
| 2026-05-08 22:15 | 20.55226 | -155.21928 | 26967 ft | 394 kts | 263° |
| 2026-05-08 22:16 | 20.54886 | -155.24858 | 26501 ft | 391 kts | 263° |
| 2026-05-08 22:16 | 20.54556 | -155.27707 | 26068 ft | 390 kts | 263° |
| 2026-05-08 22:16 | 20.54218 | -155.30612 | 25645 ft | 388 kts | 263° |
| 2026-05-08 22:16 | 20.53886 | -155.33461 | 25231 ft | 390 kts | 263° |
| 2026-05-08 22:17 | 20.53550 | -155.36346 | 24786 ft | 391 kts | 262° |
| 2026-05-08 22:17 | 20.53211 | -155.39247 | 24313 ft | 390 kts | 262° |
| 2026-05-08 22:17 | 20.52875 | -155.42117 | 23833 ft | 390 kts | 262° |
| 2026-05-08 22:17 | 20.52543 | -155.44965 | 23351 ft | 388 kts | 263° |
| 2026-05-08 22:18 | 20.52205 | -155.47844 | 22850 ft | 387 kts | 262° |
| 2026-05-08 22:18 | 20.51869 | -155.50711 | 22354 ft | 386 kts | 262° |
| 2026-05-08 22:18 | 20.51534 | -155.53554 | 21871 ft | 383 kts | 262° |
| 2026-05-08 22:18 | 20.51199 | -155.56396 | 21395 ft | 380 kts | 262° |
| 2026-05-08 22:19 | 20.50869 | -155.59190 | 20933 ft | 377 kts | 262° |
| 2026-05-08 22:19 | 20.50541 | -155.61963 | 20482 ft | 377 kts | 262° |
| 2026-05-08 22:19 | 20.50215 | -155.64723 | 20038 ft | 375 kts | 262° |
| 2026-05-08 22:19 | 20.49887 | -155.67496 | 19587 ft | 374 kts | 262° |
| 2026-05-08 22:20 | 20.49562 | -155.70241 | 19142 ft | 371 kts | 262° |
| 2026-05-08 22:20 | 20.49235 | -155.72992 | 18702 ft | 370 kts | 261° |
| 2026-05-08 22:20 | 20.48913 | -155.75703 | 18260 ft | 368 kts | 261° |
| 2026-05-08 22:20 | 20.48588 | -155.78433 | 17811 ft | 367 kts | 261° |
| 2026-05-08 22:21 | 20.48265 | -155.81146 | 17344 ft | 366 kts | 261° |
| 2026-05-08 22:21 | 20.47942 | -155.83839 | 16887 ft | 363 kts | 261° |
| 2026-05-08 22:21 | 20.47625 | -155.86505 | 16431 ft | 360 kts | 261° |
| 2026-05-08 22:21 | 20.47312 | -155.89122 | 16275 ft | 354 kts | 262° |
| 2026-05-08 22:22 | 20.47259 | -155.91785 | 16054 ft | 362 kts | 271° |
| 2026-05-08 22:22 | 20.47373 | -155.94426 | 15751 ft | 356 kts | 271° |
| 2026-05-08 22:22 | 20.47474 | -155.97063 | 15243 ft | 354 kts | 271° |
| 2026-05-08 22:22 | 20.47570 | -155.99615 | 15090 ft | 342 kts | 271° |
| 2026-05-08 22:23 | 20.47661 | -156.02104 | 15103 ft | 325 kts | 271° |
| 2026-05-08 22:23 | 20.47748 | -156.04443 | 15036 ft | 313 kts | 271° |
| 2026-05-08 22:23 | 20.47831 | -156.06770 | 14717 ft | 311 kts | 271° |
| 2026-05-08 22:23 | 20.47912 | -156.09065 | 14343 ft | 310 kts | 271° |
| 2026-05-08 22:24 | 20.47994 | -156.11343 | 14011 ft | 309 kts | 270° |
| 2026-05-08 22:24 | 20.48076 | -156.13658 | 13687 ft | 306 kts | 271° |
| 2026-05-08 22:24 | 20.48156 | -156.15916 | 13346 ft | 305 kts | 270° |
| 2026-05-08 22:24 | 20.48236 | -156.18169 | 13021 ft | 304 kts | 271° |
| 2026-05-08 22:25 | 20.48315 | -156.20421 | 12709 ft | 302 kts | 271° |
| 2026-05-08 22:25 | 20.48392 | -156.22658 | 12390 ft | 300 kts | 271° |
| 2026-05-08 22:25 | 20.48471 | -156.24864 | 12078 ft | 299 kts | 271° |
| 2026-05-08 22:25 | 20.48547 | -156.27072 | 11761 ft | 297 kts | 271° |
| 2026-05-08 22:26 | 20.48623 | -156.29257 | 11460 ft | 295 kts | 271° |
| 2026-05-08 22:26 | 20.48699 | -156.31455 | 11151 ft | 294 kts | 271° |
| 2026-05-08 22:26 | 20.48774 | -156.33606 | 10843 ft | 293 kts | 271° |
| 2026-05-08 22:26 | 20.48848 | -156.35771 | 10544 ft | 291 kts | 271° |
| 2026-05-08 22:27 | 20.48922 | -156.37936 | 10219 ft | 290 kts | 271° |
| 2026-05-08 22:27 | 20.49020 | -156.40071 | 9911 ft | 289 kts | 276° |
| 2026-05-08 22:27 | 20.49706 | -156.42084 | 9555 ft | 291 kts | 302° |
| 2026-05-08 22:27 | 20.51123 | -156.43600 | 9242 ft | 291 kts | 326° |
| 2026-05-08 22:28 | 20.52797 | -156.44783 | 8962 ft | 289 kts | 324° |
| 2026-05-08 22:28 | 20.54449 | -156.46024 | 8661 ft | 288 kts | 324° |
| 2026-05-08 22:28 | 20.56080 | -156.47260 | 8361 ft | 286 kts | 324° |
| 2026-05-08 22:28 | 20.57694 | -156.48486 | 8049 ft | 285 kts | 324° |
| 2026-05-08 22:29 | 20.59325 | -156.49728 | 7748 ft | 283 kts | 324° |
| 2026-05-08 22:29 | 20.60928 | -156.50948 | 7473 ft | 281 kts | 324° |
| 2026-05-08 22:29 | 20.62083 | -156.51875 | 7253 ft | 280 kts | 322° |
| 2026-05-08 22:31 | 20.63222 | -156.52814 | 7013 ft | 280 kts | 322° |
| 2026-05-08 22:32 | 20.64862 | -156.53954 | 6690 ft | 278 kts | 338° |
| 2026-05-08 22:32 | 20.66736 | -156.54309 | 6376 ft | 275 kts | 4° |
| 2026-05-08 22:32 | 20.68653 | -156.54149 | 6083 ft | 273 kts | 5° |
| 2026-05-08 22:32 | 20.70507 | -156.53798 | 5772 ft | 271 kts | 16° |
| 2026-05-08 22:33 | 20.72316 | -156.53255 | 5509 ft | 269 kts | 18° |
| 2026-05-08 22:33 | 20.74100 | -156.52661 | 5239 ft | 267 kts | 19° |
| 2026-05-08 22:33 | 20.75876 | -156.52005 | 4706 ft | 275 kts | 18° |
| 2026-05-08 22:33 | 20.77591 | -156.51086 | 4112 ft | 281 kts | 41° |
| 2026-05-08 22:34 | 20.78705 | -156.49432 | 3932 ft | 270 kts | 70° |
| 2026-05-08 22:34 | 20.78924 | -156.47496 | 3987 ft | 259 kts | 97° |
| 2026-05-08 22:34 | 20.78280 | -156.45790 | 3964 ft | 243 kts | 127° |
| 2026-05-08 22:34 | 20.76980 | -156.44757 | 3957 ft | 226 kts | 160° |
| 2026-05-08 22:35 | 20.75444 | -156.44672 | 3991 ft | 221 kts | 195° |
| 2026-05-08 22:35 | 20.74133 | -156.45517 | 3993 ft | 223 kts | 230° |
| 2026-05-08 22:35 | 20.73372 | -156.46950 | 3990 ft | 223 kts | 247° |
| 2026-05-08 22:35 | 20.72797 | -156.48474 | 3956 ft | 224 kts | 252° |
| 2026-05-08 22:36 | 20.72297 | -156.50044 | 3944 ft | 221 kts | 252° |
| 2026-05-08 22:36 | 20.71967 | -156.51653 | 3932 ft | 224 kts | 275° |
| 2026-05-08 22:36 | 20.72449 | -156.53172 | 3957 ft | 218 kts | 309° |
| 2026-05-08 22:36 | 20.73653 | -156.54129 | 3954 ft | 215 kts | 344° |
| 2026-05-08 22:37 | 20.75110 | -156.54170 | 3951 ft | 211 kts | 19° |
| 2026-05-08 22:37 | 20.76347 | -156.53345 | 3964 ft | 209 kts | 42° |
| 2026-05-08 22:37 | 20.77476 | -156.52331 | 3941 ft | 210 kts | 39° |
| 2026-05-08 22:37 | 20.78610 | -156.51360 | 3943 ft | 207 kts | 39° |
| 2026-05-08 22:38 | 20.79820 | -156.50490 | 3936 ft | 209 kts | 28° |
| 2026-05-08 22:38 | 20.81008 | -156.49596 | 3957 ft | 202 kts | 39° |
| 2026-05-08 22:38 | 20.82063 | -156.48712 | 3876 ft | 186 kts | 39° |
| 2026-05-08 22:38 | 20.83017 | -156.47819 | 3420 ft | 178 kts | 41° |
| 2026-05-08 22:39 | 20.83992 | -156.47021 | 2770 ft | 181 kts | 35° |
| 2026-05-08 22:39 | 20.85102 | -156.46344 | 1866 ft | 191 kts | 29° |
| 2026-05-08 22:39 | 20.86229 | -156.45665 | 1333 ft | 176 kts | 34° |
| 2026-05-08 22:39 | 20.87184 | -156.44933 | 846 ft | 169 kts | 38° |
| 2026-05-08 22:40 | 20.88093 | -156.44235 | 427 ft | 156 kts | 33° |
| 2026-05-08 22:40 | 20.88937 | -156.43613 | 128 ft | 139 kts | 34° |
| 2026-05-08 22:40 | 20.89670 | -156.43063 | 58 ft | 113 kts | 34° |
| 2026-05-08 22:40 | 20.90107 | -156.42738 | 45 ft | 35 kts | 34° |
| 2026-05-08 22:41 | 20.90258 | -156.42627 | 44 ft | 9 kts | 34° |
| 2026-05-08 22:41 | 20.90307 | -156.42592 | 44 ft | 8 kts | 34° |
| 2026-05-08 22:41 | 20.90372 | -156.42545 | 44 ft | 9 kts | 34° |
| 2026-05-08 22:41 | 20.90451 | -156.42509 | 43 ft | 16 kts | 352° |
| 2026-05-08 22:42 | 20.90477 | -156.42595 | 42 ft | 13 kts | 244° |
| 2026-05-08 22:42 | 20.90419 | -156.42673 | 42 ft | 13 kts | 218° |
| 2026-05-08 22:42 | 20.90344 | -156.42728 | 42 ft | 12 kts | 214° |
| 2026-05-08 22:42 | 20.90271 | -156.42780 | 42 ft | 12 kts | 214° |
| 2026-05-08 22:43 | 20.90199 | -156.42831 | 42 ft | 12 kts | 214° |
| 2026-05-08 22:43 | 20.90101 | -156.42903 | 43 ft | 20 kts | 216° |
| 2026-05-08 22:43 | 20.89969 | -156.43004 | 46 ft | 25 kts | 216° |
| 2026-05-08 22:43 | 20.89821 | -156.43120 | 49 ft | 26 kts | 216° |
| 2026-05-08 22:44 | 20.89682 | -156.43225 | 55 ft | 15 kts | 214° |
| 2026-05-08 22:44 | 20.89606 | -156.43280 | 59 ft | 11 kts | 215° |
| 2026-05-08 22:44 | 20.89547 | -156.43324 | 63 ft | 10 kts | 215° |
| 2026-05-08 22:44 | 20.89498 | -156.43364 | 66 ft | 8 kts | 226° |
| 2026-05-08 22:45 | 20.89493 | -156.43439 | 65 ft | 13 kts | 303° |
| 2026-05-08 22:45 | 20.89521 | -156.43483 | 62 ft | 5 kts | 304° |
| 2026-05-08 22:45 | 20.89526 | -156.43491 | 62 ft | 0 kts | 304° |
| 2026-05-08 22:45 | 20.89528 | -156.43494 | 62 ft | 1 kts | 304° |
| 2026-05-08 22:46 | 20.89537 | -156.43507 | 61 ft | 2 kts | 304° |
| 2026-05-08 22:46 | 20.89539 | -156.43510 | 61 ft | 0 kts | 304° |
| 2026-05-08 22:48 | 20.89529 | -156.43494 | 62 ft | 0 kts | 302° |